Marion, TX

9:57 AM CST on December 26, 2014 (GMT -0600)
San Antonio International | Change Station
CLOSE
Current Station
Airport
Location: San Antonio,
Elevation: 794 ft
Nearby Weather Stations

Elev 794 ft 29.53 °N, 98.47 °W | Updated 6 minutes ago

Overcast
Overcast
62 °F
Feels Like 62 °F
N
10
Wind Variable Wind from SSE

Today
High -- | Low -- °F
--% Chance of Precip.
Yesterday
High -- | Low -- °F
Precip. -- in
7:25 AM 5:40 PM
Waxing Crescent, 27% visible
Pressure 29.93 in
Visibility 10.0 miles
Clouds Overcast 600 ft
Dew Point 58 °F
Humidity 86%
Rainfall 0.00 in
Snow Depth Not available.
UV 1 out of 12
Pollen 10.10 out of 12
Air Quality Not available.
Flu Activity Not available.
METAR KSAT 261551Z 16009KT 10SM OVC006 17/14 A2996 RMK AO2 SLP135 CIG 006V010 SHRA VC NE-SE T01670144

More Conditions Fewer Conditions

Pressure 29.93 in
Visibility 10.0 miles
Clouds Overcast 600 ft
Dew Point 58 °F
Humidity 86%
Rainfall 0.00 in
Snow Depth Not available.
UV 1 out of 12
Pollen 10.10 out of 12
Air Quality Not available.
Flu Activity Not available.
METAR KSAT 261551Z 16009KT 10SM OVC006 17/14 A2996 RMK AO2 SLP135 CIG 006V010 SHRA VC NE-SE T01670144

More Conditions Fewer Conditions

Nowcast | as of 8:44 am CST on December 26, 2014

Through 10 am...patchy drizzle and light rain will move to the north across eastern parts of south central Texas. Rainfall amounts up to a few hundredths of an inch can be expected.

×

10-Day Weather Forecast

Almanac

Astronomy

Dec. 26, 2014 Rise Set
Actual Time
Civil Twilight
Nautical Twilight
Astronomical Twilight
Moon
Length of Visible Light
Length of Day
Tomorrow will be .
, % of the Moon is Illuminated

Today's Extremes

State Highs State Lows

Community

WunderPhotos

Upload Photos

1,780,620 photos uploaded!

WunderBlogs® & News

Nearby

Air Quality

  Air Quality AQ Index Pollutant
Not available.

Snow Depth

Station Depth Elevation

Earthquake Activity

City Distance Mag. Time & Date
Minimum magnitude displayed is 2.5.

Coastal Water Temperatures

Place Temperature

Nearby Weather Stations